sensor_id;sensor_type;location;lat;lon;timestamp;P1;durP1;ratioP1;P2;durP2;ratioP2
68438;SDS011;55421;51.600;5.718;2023-12-22T00:01:07;5.50;;;1.10;;
68438;SDS011;55421;51.600;5.718;2023-12-22T00:03:40;5.30;;;1.00;;
68438;SDS011;55421;51.600;5.718;2023-12-22T00:06:07;7.80;;;1.50;;
68438;SDS011;55421;51.600;5.718;2023-12-22T00:08:34;7.60;;;1.00;;
68438;SDS011;55421;51.600;5.718;2023-12-22T00:11:00;5.90;;;1.40;;
68438;SDS011;55421;51.600;5.718;2023-12-22T00:13:27;5.30;;;1.50;;
68438;SDS011;55421;51.600;5.718;2023-12-22T00:15:54;7.80;;;1.40;;
68438;SDS011;55421;51.600;5.718;2023-12-22T00:18:20;8.10;;;1.10;;
68438;SDS011;55421;51.600;5.718;2023-12-22T00:20:47;7.90;;;0.90;;
68438;SDS011;55421;51.600;5.718;2023-12-22T00:23:13;5.10;;;0.90;;
68438;SDS011;55421;51.600;5.718;2023-12-22T00:25:39;4.30;;;0.80;;
68438;SDS011;55421;51.600;5.718;2023-12-22T00:28:06;8.60;;;1.10;;
68438;SDS011;55421;51.600;5.718;2023-12-22T00:30:32;5.40;;;1.00;;
68438;SDS011;55421;51.600;5.718;2023-12-22T00:32:59;7.70;;;1.50;;
68438;SDS011;55421;51.600;5.718;2023-12-22T00:35:26;7.40;;;1.30;;
68438;SDS011;55421;51.600;5.718;2023-12-22T00:37:52;7.10;;;1.20;;
68438;SDS011;55421;51.600;5.718;2023-12-22T00:40:19;6.80;;;1.10;;
68438;SDS011;55421;51.600;5.718;2023-12-22T00:42:46;6.80;;;1.10;;
68438;SDS011;55421;51.600;5.718;2023-12-22T00:45:12;7.60;;;1.60;;
68438;SDS011;55421;51.600;5.718;2023-12-22T00:47:39;6.40;;;1.20;;
68438;SDS011;55421;51.600;5.718;2023-12-22T00:50:06;7.30;;;1.30;;
68438;SDS011;55421;51.600;5.718;2023-12-22T00:52:34;7.20;;;1.20;;
68438;SDS011;55421;51.600;5.718;2023-12-22T00:55:00;6.90;;;0.90;;
68438;SDS011;55421;51.600;5.718;2023-12-22T00:57:27;9.70;;;1.50;;
68438;SDS011;55421;51.600;5.718;2023-12-22T00:59:54;10.40;;;1.60;;
68438;SDS011;55421;51.600;5.718;2023-12-22T01:02:21;9.90;;;1.40;;
68438;SDS011;55421;51.600;5.718;2023-12-22T01:04:47;18.50;;;3.20;;
68438;SDS011;55421;51.600;5.718;2023-12-22T01:07:14;5.00;;;1.10;;
68438;SDS011;55421;51.600;5.718;2023-12-22T01:09:40;6.70;;;1.40;;
68438;SDS011;55421;51.600;5.718;2023-12-22T01:12:08;9.70;;;1.80;;
68438;SDS011;55421;51.600;5.718;2023-12-22T01:14:36;12.80;;;1.80;;
68438;SDS011;55421;51.600;5.718;2023-12-22T01:17:03;10.70;;;1.30;;
68438;SDS011;55421;51.600;5.718;2023-12-22T01:19:29;7.80;;;1.40;;
68438;SDS011;55421;51.600;5.718;2023-12-22T01:21:56;11.20;;;1.70;;
68438;SDS011;55421;51.600;5.718;2023-12-22T01:24:22;14.20;;;1.80;;
68438;SDS011;55421;51.600;5.718;2023-12-22T01:26:49;4.90;;;1.20;;
68438;SDS011;55421;51.600;5.718;2023-12-22T01:29:15;9.00;;;1.40;;
68438;SDS011;55421;51.600;5.718;2023-12-22T01:31:42;7.10;;;1.40;;
68438;SDS011;55421;51.600;5.718;2023-12-22T01:34:08;9.60;;;1.70;;
68438;SDS011;55421;51.600;5.718;2023-12-22T01:36:34;17.20;;;1.80;;
68438;SDS011;55421;51.600;5.718;2023-12-22T01:39:01;9.10;;;2.10;;
68438;SDS011;55421;51.600;5.718;2023-12-22T01:41:27;10.90;;;1.70;;
68438;SDS011;55421;51.600;5.718;2023-12-22T01:43:54;8.90;;;1.70;;
68438;SDS011;55421;51.600;5.718;2023-12-22T01:46:21;10.90;;;1.80;;
68438;SDS011;55421;51.600;5.718;2023-12-22T01:48:47;8.80;;;1.70;;
68438;SDS011;55421;51.600;5.718;2023-12-22T01:51:14;8.00;;;1.80;;
68438;SDS011;55421;51.600;5.718;2023-12-22T01:53:41;9.40;;;1.80;;
68438;SDS011;55421;51.600;5.718;2023-12-22T01:56:08;8.50;;;1.60;;
68438;SDS011;55421;51.600;5.718;2023-12-22T01:58:36;13.00;;;1.90;;
68438;SDS011;55421;51.600;5.718;2023-12-22T02:01:04;7.00;;;1.50;;
68438;SDS011;55421;51.600;5.718;2023-12-22T02:03:31;9.80;;;2.00;;
68438;SDS011;55421;51.600;5.718;2023-12-22T02:05:58;13.70;;;1.80;;
68438;SDS011;55421;51.600;5.718;2023-12-22T02:08:25;11.90;;;2.30;;
68438;SDS011;55421;51.600;5.718;2023-12-22T02:10:54;9.60;;;1.80;;
68438;SDS011;55421;51.600;5.718;2023-12-22T02:13:20;8.10;;;1.50;;
68438;SDS011;55421;51.600;5.718;2023-12-22T02:15:47;7.40;;;1.70;;
68438;SDS011;55421;51.600;5.718;2023-12-22T02:18:35;11.80;;;2.20;;
68438;SDS011;55421;51.600;5.718;2023-12-22T02:21:05;16.10;;;2.10;;
68438;SDS011;55421;51.600;5.718;2023-12-22T02:23:31;10.10;;;2.00;;
68438;SDS011;55421;51.600;5.718;2023-12-22T02:26:06;13.80;;;2.60;;
68438;SDS011;55421;51.600;5.718;2023-12-22T02:28:41;8.20;;;1.70;;
68438;SDS011;55421;51.600;5.718;2023-12-22T02:31:17;7.60;;;1.70;;
68438;SDS011;55421;51.600;5.718;2023-12-22T02:33:50;9.60;;;1.60;;
68438;SDS011;55421;51.600;5.718;2023-12-22T02:36:20;12.50;;;1.90;;
68438;SDS011;55421;51.600;5.718;2023-12-22T02:38:48;11.80;;;2.90;;
68438;SDS011;55421;51.600;5.718;2023-12-22T02:41:16;17.30;;;2.10;;
68438;SDS011;55421;51.600;5.718;2023-12-22T02:43:43;18.30;;;2.40;;
68438;SDS011;55421;51.600;5.718;2023-12-22T02:46:14;6.80;;;1.40;;
68438;SDS011;55421;51.600;5.718;2023-12-22T02:48:41;10.10;;;2.10;;
68438;SDS011;55421;51.600;5.718;2023-12-22T02:51:07;16.60;;;2.40;;
68438;SDS011;55421;51.600;5.718;2023-12-22T02:53:34;13.70;;;2.30;;
68438;SDS011;55421;51.600;5.718;2023-12-22T02:56:00;9.60;;;1.30;;
68438;SDS011;55421;51.600;5.718;2023-12-22T02:58:27;13.00;;;1.90;;
68438;SDS011;55421;51.600;5.718;2023-12-22T03:00:54;14.40;;;2.00;;
68438;SDS011;55421;51.600;5.718;2023-12-22T03:03:20;8.50;;;1.60;;
68438;SDS011;55421;51.600;5.718;2023-12-22T03:05:46;12.10;;;2.10;;
68438;SDS011;55421;51.600;5.718;2023-12-22T03:08:13;18.70;;;2.40;;
68438;SDS011;55421;51.600;5.718;2023-12-22T03:10:39;13.60;;;1.80;;
68438;SDS011;55421;51.600;5.718;2023-12-22T03:13:06;8.30;;;1.50;;
68438;SDS011;55421;51.600;5.718;2023-12-22T03:15:32;10.60;;;1.80;;
68438;SDS011;55421;51.600;5.718;2023-12-22T03:17:59;10.30;;;2.20;;
68438;SDS011;55421;51.600;5.718;2023-12-22T03:20:25;15.10;;;2.40;;
68438;SDS011;55421;51.600;5.718;2023-12-22T03:22:51;10.30;;;1.60;;
68438;SDS011;55421;51.600;5.718;2023-12-22T03:25:18;9.50;;;1.60;;
68438;SDS011;55421;51.600;5.718;2023-12-22T03:27:45;13.70;;;1.30;;
68438;SDS011;55421;51.600;5.718;2023-12-22T03:30:12;12.30;;;1.90;;
68438;SDS011;55421;51.600;5.718;2023-12-22T03:32:38;13.20;;;1.90;;
68438;SDS011;55421;51.600;5.718;2023-12-22T03:35:05;16.70;;;2.50;;
68438;SDS011;55421;51.600;5.718;2023-12-22T03:37:32;11.50;;;1.80;;
68438;SDS011;55421;51.600;5.718;2023-12-22T03:39:59;11.60;;;1.80;;
68438;SDS011;55421;51.600;5.718;2023-12-22T03:42:25;9.70;;;1.90;;
68438;SDS011;55421;51.600;5.718;2023-12-22T03:44:52;14.90;;;2.50;;
68438;SDS011;55421;51.600;5.718;2023-12-22T03:47:18;12.20;;;1.80;;
68438;SDS011;55421;51.600;5.718;2023-12-22T03:49:45;15.10;;;2.70;;
68438;SDS011;55421;51.600;5.718;2023-12-22T03:52:11;9.70;;;2.00;;
68438;SDS011;55421;51.600;5.718;2023-12-22T03:54:37;10.80;;;1.80;;
68438;SDS011;55421;51.600;5.718;2023-12-22T03:57:04;14.90;;;1.90;;
68438;SDS011;55421;51.600;5.718;2023-12-22T03:59:31;9.30;;;1.80;;
68438;SDS011;55421;51.600;5.718;2023-12-22T04:01:57;11.90;;;2.20;;
68438;SDS011;55421;51.600;5.718;2023-12-22T04:04:27;12.90;;;2.00;;
68438;SDS011;55421;51.600;5.718;2023-12-22T04:06:54;11.80;;;1.90;;
68438;SDS011;55421;51.600;5.718;2023-12-22T04:09:21;10.10;;;2.50;;
68438;SDS011;55421;51.600;5.718;2023-12-22T04:11:47;9.70;;;1.90;;
68438;SDS011;55421;51.600;5.718;2023-12-22T04:14:14;10.50;;;1.90;;
68438;SDS011;55421;51.600;5.718;2023-12-22T04:16:41;14.90;;;2.10;;
68438;SDS011;55421;51.600;5.718;2023-12-22T04:19:08;14.30;;;2.30;;
68438;SDS011;55421;51.600;5.718;2023-12-22T04:21:35;10.50;;;1.90;;
68438;SDS011;55421;51.600;5.718;2023-12-22T04:24:01;4.80;;;1.40;;
68438;SDS011;55421;51.600;5.718;2023-12-22T04:26:28;8.20;;;1.70;;
68438;SDS011;55421;51.600;5.718;2023-12-22T04:28:54;7.20;;;1.90;;
68438;SDS011;55421;51.600;5.718;2023-12-22T04:31:20;12.30;;;1.50;;
68438;SDS011;55421;51.600;5.718;2023-12-22T04:33:47;11.10;;;1.70;;
68438;SDS011;55421;51.600;5.718;2023-12-22T04:36:14;8.20;;;1.60;;
68438;SDS011;55421;51.600;5.718;2023-12-22T04:38:40;17.20;;;1.80;;
68438;SDS011;55421;51.600;5.718;2023-12-22T04:41:07;10.50;;;1.60;;
68438;SDS011;55421;51.600;5.718;2023-12-22T04:43:33;12.60;;;1.50;;
68438;SDS011;55421;51.600;5.718;2023-12-22T04:46:00;10.40;;;1.70;;
68438;SDS011;55421;51.600;5.718;2023-12-22T04:48:28;11.20;;;1.80;;
68438;SDS011;55421;51.600;5.718;2023-12-22T04:50:55;9.80;;;1.70;;
68438;SDS011;55421;51.600;5.718;2023-12-22T04:53:21;8.30;;;1.70;;
68438;SDS011;55421;51.600;5.718;2023-12-22T04:55:49;9.00;;;1.70;;
68438;SDS011;55421;51.600;5.718;2023-12-22T04:58:16;12.00;;;2.00;;
68438;SDS011;55421;51.600;5.718;2023-12-22T05:00:42;8.20;;;1.40;;
68438;SDS011;55421;51.600;5.718;2023-12-22T05:03:09;13.90;;;1.90;;
68438;SDS011;55421;51.600;5.718;2023-12-22T05:05:36;7.10;;;1.40;;
68438;SDS011;55421;51.600;5.718;2023-12-22T05:08:03;11.70;;;1.70;;
68438;SDS011;55421;51.600;5.718;2023-12-22T05:10:31;8.90;;;1.20;;
68438;SDS011;55421;51.600;5.718;2023-12-22T05:12:58;7.50;;;1.10;;
68438;SDS011;55421;51.600;5.718;2023-12-22T05:15:25;13.10;;;1.70;;
68438;SDS011;55421;51.600;5.718;2023-12-22T05:17:52;9.40;;;1.70;;
68438;SDS011;55421;51.600;5.718;2023-12-22T05:20:19;11.50;;;1.70;;
68438;SDS011;55421;51.600;5.718;2023-12-22T05:22:45;7.20;;;1.50;;
68438;SDS011;55421;51.600;5.718;2023-12-22T05:25:13;11.50;;;1.80;;
68438;SDS011;55421;51.600;5.718;2023-12-22T05:27:40;9.60;;;1.40;;
68438;SDS011;55421;51.600;5.718;2023-12-22T05:30:10;13.30;;;2.30;;
68438;SDS011;55421;51.600;5.718;2023-12-22T05:32:37;13.10;;;1.80;;
68438;SDS011;55421;51.600;5.718;2023-12-22T05:35:04;10.80;;;1.30;;
68438;SDS011;55421;51.600;5.718;2023-12-22T05:37:31;8.00;;;1.40;;
68438;SDS011;55421;51.600;5.718;2023-12-22T05:39:57;7.00;;;1.60;;
68438;SDS011;55421;51.600;5.718;2023-12-22T05:42:24;11.70;;;1.50;;
68438;SDS011;55421;51.600;5.718;2023-12-22T05:44:50;6.50;;;1.20;;
68438;SDS011;55421;51.600;5.718;2023-12-22T05:47:17;5.20;;;1.10;;
68438;SDS011;55421;51.600;5.718;2023-12-22T05:49:43;8.90;;;1.30;;
68438;SDS011;55421;51.600;5.718;2023-12-22T05:52:11;7.20;;;1.20;;
68438;SDS011;55421;51.600;5.718;2023-12-22T05:54:38;8.30;;;1.40;;
68438;SDS011;55421;51.600;5.718;2023-12-22T05:57:05;12.80;;;1.70;;
68438;SDS011;55421;51.600;5.718;2023-12-22T05:59:33;4.60;;;1.00;;
68438;SDS011;55421;51.600;5.718;2023-12-22T06:02:01;14.60;;;2.80;;
68438;SDS011;55421;51.600;5.718;2023-12-22T06:04:28;6.30;;;1.20;;
68438;SDS011;55421;51.600;5.718;2023-12-22T06:06:55;4.80;;;0.90;;
68438;SDS011;55421;51.600;5.718;2023-12-22T06:09:21;10.20;;;1.70;;
68438;SDS011;55421;51.600;5.718;2023-12-22T06:11:48;7.10;;;1.40;;
68438;SDS011;55421;51.600;5.718;2023-12-22T06:14:15;12.60;;;1.80;;
68438;SDS011;55421;51.600;5.718;2023-12-22T06:16:41;9.60;;;2.20;;
68438;SDS011;55421;51.600;5.718;2023-12-22T06:19:08;14.00;;;1.90;;
68438;SDS011;55421;51.600;5.718;2023-12-22T06:21:39;9.70;;;1.70;;
68438;SDS011;55421;51.600;5.718;2023-12-22T06:24:07;9.90;;;1.80;;
68438;SDS011;55421;51.600;5.718;2023-12-22T06:26:34;13.50;;;2.60;;
68438;SDS011;55421;51.600;5.718;2023-12-22T06:29:00;18.10;;;2.80;;
68438;SDS011;55421;51.600;5.718;2023-12-22T06:31:27;17.40;;;2.50;;
68438;SDS011;55421;51.600;5.718;2023-12-22T06:33:53;13.30;;;2.50;;
68438;SDS011;55421;51.600;5.718;2023-12-22T06:36:21;12.40;;;2.30;;
68438;SDS011;55421;51.600;5.718;2023-12-22T06:38:52;7.50;;;2.20;;
68438;SDS011;55421;51.600;5.718;2023-12-22T06:41:21;14.60;;;2.30;;
68438;SDS011;55421;51.600;5.718;2023-12-22T06:43:49;11.00;;;1.90;;
68438;SDS011;55421;51.600;5.718;2023-12-22T06:46:18;11.90;;;2.10;;
68438;SDS011;55421;51.600;5.718;2023-12-22T06:48:46;13.70;;;2.20;;
68438;SDS011;55421;51.600;5.718;2023-12-22T06:51:19;8.00;;;2.00;;
68438;SDS011;55421;51.600;5.718;2023-12-22T06:53:47;14.10;;;3.40;;
68438;SDS011;55421;51.600;5.718;2023-12-22T06:56:18;20.60;;;3.90;;
68438;SDS011;55421;51.600;5.718;2023-12-22T06:58:47;13.00;;;2.50;;
68438;SDS011;55421;51.600;5.718;2023-12-22T07:01:22;19.30;;;3.10;;
68438;SDS011;55421;51.600;5.718;2023-12-22T07:03:55;13.60;;;2.70;;
68438;SDS011;55421;51.600;5.718;2023-12-22T07:06:24;15.60;;;2.80;;
68438;SDS011;55421;51.600;5.718;2023-12-22T07:11:42;16.60;;;2.90;;
68438;SDS011;55421;51.600;5.718;2023-12-22T07:14:10;25.20;;;3.30;;
68438;SDS011;55421;51.600;5.718;2023-12-22T07:16:37;26.90;;;4.90;;
68438;SDS011;55421;51.600;5.718;2023-12-22T07:19:06;16.90;;;3.30;;
68438;SDS011;55421;51.600;5.718;2023-12-22T07:21:33;29.00;;;3.80;;
68438;SDS011;55421;51.600;5.718;2023-12-22T07:24:00;25.40;;;4.00;;
68438;SDS011;55421;51.600;5.718;2023-12-22T07:26:29;27.20;;;4.00;;
68438;SDS011;55421;51.600;5.718;2023-12-22T07:28:56;15.60;;;3.30;;
68438;SDS011;55421;51.600;5.718;2023-12-22T07:31:22;17.00;;;3.00;;
68438;SDS011;55421;51.600;5.718;2023-12-22T07:33:49;24.90;;;3.80;;
68438;SDS011;55421;51.600;5.718;2023-12-22T07:36:16;24.50;;;4.10;;
68438;SDS011;55421;51.600;5.718;2023-12-22T07:38:44;27.00;;;4.20;;
68438;SDS011;55421;51.600;5.718;2023-12-22T07:41:11;23.70;;;3.70;;
68438;SDS011;55421;51.600;5.718;2023-12-22T07:43:37;20.50;;;3.40;;
68438;SDS011;55421;51.600;5.718;2023-12-22T07:46:04;25.20;;;4.30;;
68438;SDS011;55421;51.600;5.718;2023-12-22T07:48:30;20.20;;;3.60;;
68438;SDS011;55421;51.600;5.718;2023-12-22T07:50:57;21.40;;;3.50;;
68438;SDS011;55421;51.600;5.718;2023-12-22T07:53:23;26.90;;;4.00;;
68438;SDS011;55421;51.600;5.718;2023-12-22T07:55:51;26.30;;;3.50;;
68438;SDS011;55421;51.600;5.718;2023-12-22T07:58:17;13.20;;;2.90;;
68438;SDS011;55421;51.600;5.718;2023-12-22T08:00:43;19.40;;;3.20;;
68438;SDS011;55421;51.600;5.718;2023-12-22T08:03:12;23.40;;;3.20;;
68438;SDS011;55421;51.600;5.718;2023-12-22T08:05:39;17.70;;;3.10;;
68438;SDS011;55421;51.600;5.718;2023-12-22T08:08:05;23.20;;;3.80;;
68438;SDS011;55421;51.600;5.718;2023-12-22T08:10:32;22.90;;;3.60;;
68438;SDS011;55421;51.600;5.718;2023-12-22T08:12:58;24.40;;;4.20;;
68438;SDS011;55421;51.600;5.718;2023-12-22T08:15:25;26.30;;;4.10;;
68438;SDS011;55421;51.600;5.718;2023-12-22T08:17:51;20.50;;;4.50;;
68438;SDS011;55421;51.600;5.718;2023-12-22T08:20:19;15.10;;;2.90;;
68438;SDS011;55421;51.600;5.718;2023-12-22T08:22:47;19.80;;;3.30;;
68438;SDS011;55421;51.600;5.718;2023-12-22T08:25:15;18.60;;;3.80;;
68438;SDS011;55421;51.600;5.718;2023-12-22T08:27:43;18.20;;;2.70;;
68438;SDS011;55421;51.600;5.718;2023-12-22T08:30:10;20.10;;;2.80;;
68438;SDS011;55421;51.600;5.718;2023-12-22T08:32:38;19.40;;;3.50;;
68438;SDS011;55421;51.600;5.718;2023-12-22T08:35:05;17.80;;;3.70;;
68438;SDS011;55421;51.600;5.718;2023-12-22T08:37:33;20.30;;;3.10;;
68438;SDS011;55421;51.600;5.718;2023-12-22T08:39:59;19.30;;;2.60;;
68438;SDS011;55421;51.600;5.718;2023-12-22T08:42:26;20.10;;;4.00;;
68438;SDS011;55421;51.600;5.718;2023-12-22T08:44:55;22.40;;;2.80;;
68438;SDS011;55421;51.600;5.718;2023-12-22T08:47:22;17.20;;;3.30;;
68438;SDS011;55421;51.600;5.718;2023-12-22T08:49:48;18.00;;;3.40;;
68438;SDS011;55421;51.600;5.718;2023-12-22T08:52:16;14.10;;;2.50;;
68438;SDS011;55421;51.600;5.718;2023-12-22T08:54:45;10.20;;;2.10;;
68438;SDS011;55421;51.600;5.718;2023-12-22T08:57:11;19.50;;;3.10;;
68438;SDS011;55421;51.600;5.718;2023-12-22T08:59:40;11.10;;;1.90;;
68438;SDS011;55421;51.600;5.718;2023-12-22T09:02:07;16.30;;;2.40;;
68438;SDS011;55421;51.600;5.718;2023-12-22T09:04:33;9.70;;;2.60;;
68438;SDS011;55421;51.600;5.718;2023-12-22T09:07:00;14.20;;;2.20;;
68438;SDS011;55421;51.600;5.718;2023-12-22T09:09:26;7.90;;;1.70;;
68438;SDS011;55421;51.600;5.718;2023-12-22T09:11:54;8.00;;;1.80;;
68438;SDS011;55421;51.600;5.718;2023-12-22T09:14:24;9.40;;;2.00;;
68438;SDS011;55421;51.600;5.718;2023-12-22T09:16:52;11.00;;;2.20;;
68438;SDS011;55421;51.600;5.718;2023-12-22T09:19:22;9.30;;;1.70;;
68438;SDS011;55421;51.600;5.718;2023-12-22T09:21:48;5.00;;;1.30;;
68438;SDS011;55421;51.600;5.718;2023-12-22T09:24:15;6.70;;;1.80;;
68438;SDS011;55421;51.600;5.718;2023-12-22T09:26:43;8.30;;;1.50;;
68438;SDS011;55421;51.600;5.718;2023-12-22T09:29:10;8.50;;;1.60;;
68438;SDS011;55421;51.600;5.718;2023-12-22T09:31:39;4.40;;;1.50;;
68438;SDS011;55421;51.600;5.718;2023-12-22T09:34:06;7.80;;;1.70;;
68438;SDS011;55421;51.600;5.718;2023-12-22T09:36:34;4.90;;;1.60;;
68438;SDS011;55421;51.600;5.718;2023-12-22T09:39:01;7.70;;;1.70;;
68438;SDS011;55421;51.600;5.718;2023-12-22T09:41:27;3.80;;;1.10;;
68438;SDS011;55421;51.600;5.718;2023-12-22T09:43:56;3.90;;;1.20;;
68438;SDS011;55421;51.600;5.718;2023-12-22T09:46:25;4.80;;;1.20;;
68438;SDS011;55421;51.600;5.718;2023-12-22T09:48:53;4.30;;;1.20;;
68438;SDS011;55421;51.600;5.718;2023-12-22T09:51:20;3.90;;;1.10;;
68438;SDS011;55421;51.600;5.718;2023-12-22T09:53:47;6.70;;;1.50;;
68438;SDS011;55421;51.600;5.718;2023-12-22T09:56:17;6.40;;;1.30;;
68438;SDS011;55421;51.600;5.718;2023-12-22T09:58:45;4.10;;;1.20;;
68438;SDS011;55421;51.600;5.718;2023-12-22T10:01:13;6.90;;;1.40;;
68438;SDS011;55421;51.600;5.718;2023-12-22T10:03:41;3.90;;;1.70;;
68438;SDS011;55421;51.600;5.718;2023-12-22T10:06:09;4.60;;;1.30;;
68438;SDS011;55421;51.600;5.718;2023-12-22T10:08:36;6.40;;;1.30;;
68438;SDS011;55421;51.600;5.718;2023-12-22T10:11:04;6.70;;;1.50;;
68438;SDS011;55421;51.600;5.718;2023-12-22T10:13:33;4.30;;;1.20;;
68438;SDS011;55421;51.600;5.718;2023-12-22T10:18:33;5.50;;;1.40;;
68438;SDS011;55421;51.600;5.718;2023-12-22T10:20:59;2.50;;;0.90;;
68438;SDS011;55421;51.600;5.718;2023-12-22T10:23:27;4.60;;;1.30;;
68438;SDS011;55421;51.600;5.718;2023-12-22T10:25:53;3.40;;;1.00;;
68438;SDS011;55421;51.600;5.718;2023-12-22T10:28:22;3.30;;;0.90;;
68438;SDS011;55421;51.600;5.718;2023-12-22T10:30:51;8.40;;;1.20;;
68438;SDS011;55421;51.600;5.718;2023-12-22T10:33:19;3.80;;;1.00;;
68438;SDS011;55421;51.600;5.718;2023-12-22T10:35:46;3.40;;;1.10;;
68438;SDS011;55421;51.600;5.718;2023-12-22T10:38:18;4.50;;;1.10;;
68438;SDS011;55421;51.600;5.718;2023-12-22T10:40:48;4.50;;;1.00;;
68438;SDS011;55421;51.600;5.718;2023-12-22T10:43:16;3.80;;;1.20;;
68438;SDS011;55421;51.600;5.718;2023-12-22T10:45:43;3.90;;;1.30;;
68438;SDS011;55421;51.600;5.718;2023-12-22T10:48:11;4.70;;;1.20;;
68438;SDS011;55421;51.600;5.718;2023-12-22T10:50:40;6.70;;;1.80;;
68438;SDS011;55421;51.600;5.718;2023-12-22T10:53:10;3.90;;;1.20;;
68438;SDS011;55421;51.600;5.718;2023-12-22T10:55:37;7.80;;;1.50;;
68438;SDS011;55421;51.600;5.718;2023-12-22T10:58:05;4.50;;;1.40;;
68438;SDS011;55421;51.600;5.718;2023-12-22T11:00:32;5.20;;;1.70;;
68438;SDS011;55421;51.600;5.718;2023-12-22T11:03:08;3.10;;;1.10;;
68438;SDS011;55421;51.600;5.718;2023-12-22T11:05:44;3.80;;;1.80;;
68438;SDS011;55421;51.600;5.718;2023-12-22T11:08:13;3.60;;;1.30;;
68438;SDS011;55421;51.600;5.718;2023-12-22T11:10:43;3.80;;;1.20;;
68438;SDS011;55421;51.600;5.718;2023-12-22T11:13:12;6.90;;;1.60;;
68438;SDS011;55421;51.600;5.718;2023-12-22T11:15:39;3.90;;;1.40;;
68438;SDS011;55421;51.600;5.718;2023-12-22T11:18:08;3.10;;;1.20;;
68438;SDS011;55421;51.600;5.718;2023-12-22T11:20:37;8.20;;;1.60;;
68438;SDS011;55421;51.600;5.718;2023-12-22T11:23:06;5.80;;;1.60;;
68438;SDS011;55421;51.600;5.718;2023-12-22T11:25:35;4.60;;;1.60;;
68438;SDS011;55421;51.600;5.718;2023-12-22T11:28:05;6.80;;;1.60;;
68438;SDS011;55421;51.600;5.718;2023-12-22T11:30:34;5.00;;;1.50;;
68438;SDS011;55421;51.600;5.718;2023-12-22T11:33:04;4.30;;;1.50;;
68438;SDS011;55421;51.600;5.718;2023-12-22T11:35:31;4.60;;;1.70;;
68438;SDS011;55421;51.600;5.718;2023-12-22T11:38:02;5.80;;;1.40;;
68438;SDS011;55421;51.600;5.718;2023-12-22T11:40:29;3.90;;;1.60;;
68438;SDS011;55421;51.600;5.718;2023-12-22T11:42:58;4.50;;;1.50;;
68438;SDS011;55421;51.600;5.718;2023-12-22T11:45:30;3.70;;;1.80;;
68438;SDS011;55421;51.600;5.718;2023-12-22T11:48:06;5.50;;;1.40;;
68438;SDS011;55421;51.600;5.718;2023-12-22T11:50:34;2.60;;;1.40;;
68438;SDS011;55421;51.600;5.718;2023-12-22T11:53:21;4.80;;;1.40;;
68438;SDS011;55421;51.600;5.718;2023-12-22T11:56:00;6.40;;;1.40;;
68438;SDS011;55421;51.600;5.718;2023-12-22T12:01:24;3.60;;;1.30;;
68438;SDS011;55421;51.600;5.718;2023-12-22T12:03:58;4.70;;;1.40;;
68438;SDS011;55421;51.600;5.718;2023-12-22T12:09:06;4.30;;;1.60;;
68438;SDS011;55421;51.600;5.718;2023-12-22T12:14:32;6.60;;;1.60;;
68438;SDS011;55421;51.600;5.718;2023-12-22T12:17:06;5.60;;;2.00;;
68438;SDS011;55421;51.600;5.718;2023-12-22T12:19:37;7.10;;;1.90;;
68438;SDS011;55421;51.600;5.718;2023-12-22T12:22:05;3.80;;;1.30;;
68438;SDS011;55421;51.600;5.718;2023-12-22T12:24:32;3.50;;;1.40;;
68438;SDS011;55421;51.600;5.718;2023-12-22T12:26:59;4.70;;;1.50;;
68438;SDS011;55421;51.600;5.718;2023-12-22T12:29:26;4.90;;;1.50;;
68438;SDS011;55421;51.600;5.718;2023-12-22T12:31:52;7.70;;;2.50;;
68438;SDS011;55421;51.600;5.718;2023-12-22T12:34:22;4.00;;;1.50;;
68438;SDS011;55421;51.600;5.718;2023-12-22T12:36:51;6.70;;;1.60;;
68438;SDS011;55421;51.600;5.718;2023-12-22T12:39:22;6.20;;;1.70;;
68438;SDS011;55421;51.600;5.718;2023-12-22T12:41:54;4.30;;;1.60;;
68438;SDS011;55421;51.600;5.718;2023-12-22T12:44:23;4.60;;;1.50;;
68438;SDS011;55421;51.600;5.718;2023-12-22T12:46:51;8.90;;;2.00;;
68438;SDS011;55421;51.600;5.718;2023-12-22T12:49:18;3.70;;;1.80;;
68438;SDS011;55421;51.600;5.718;2023-12-22T12:51:47;7.20;;;1.80;;
68438;SDS011;55421;51.600;5.718;2023-12-22T12:54:15;9.30;;;1.90;;
68438;SDS011;55421;51.600;5.718;2023-12-22T12:56:43;5.30;;;1.40;;
68438;SDS011;55421;51.600;5.718;2023-12-22T12:59:16;6.60;;;1.80;;
68438;SDS011;55421;51.600;5.718;2023-12-22T13:01:45;4.20;;;1.40;;
68438;SDS011;55421;51.600;5.718;2023-12-22T13:04:14;9.60;;;2.00;;
68438;SDS011;55421;51.600;5.718;2023-12-22T13:06:51;3.70;;;1.10;;
68438;SDS011;55421;51.600;5.718;2023-12-22T13:09:18;5.20;;;1.30;;
68438;SDS011;55421;51.600;5.718;2023-12-22T13:11:46;7.50;;;1.30;;
68438;SDS011;55421;51.600;5.718;2023-12-22T13:14:23;6.10;;;1.40;;
68438;SDS011;55421;51.600;5.718;2023-12-22T13:16:53;7.20;;;1.50;;
68438;SDS011;55421;51.600;5.718;2023-12-22T13:19:23;7.60;;;1.30;;
68438;SDS011;55421;51.600;5.718;2023-12-22T13:24:20;8.10;;;1.70;;
68438;SDS011;55421;51.600;5.718;2023-12-22T13:26:59;5.00;;;1.20;;
68438;SDS011;55421;51.600;5.718;2023-12-22T13:29:30;7.30;;;1.80;;
68438;SDS011;55421;51.600;5.718;2023-12-22T13:32:08;6.80;;;1.40;;
68438;SDS011;55421;51.600;5.718;2023-12-22T13:34:34;5.40;;;1.60;;
68438;SDS011;55421;51.600;5.718;2023-12-22T13:37:02;6.70;;;1.40;;
68438;SDS011;55421;51.600;5.718;2023-12-22T13:39:30;4.30;;;1.70;;
68438;SDS011;55421;51.600;5.718;2023-12-22T13:41:57;10.50;;;1.60;;
68438;SDS011;55421;51.600;5.718;2023-12-22T13:44:24;5.30;;;1.80;;
68438;SDS011;55421;51.600;5.718;2023-12-22T13:46:51;5.70;;;1.30;;
68438;SDS011;55421;51.600;5.718;2023-12-22T13:49:17;6.90;;;1.60;;
68438;SDS011;55421;51.600;5.718;2023-12-22T13:51:45;3.40;;;1.20;;
68438;SDS011;55421;51.600;5.718;2023-12-22T13:54:14;3.60;;;1.10;;
68438;SDS011;55421;51.600;5.718;2023-12-22T13:56:43;4.90;;;1.30;;
68438;SDS011;55421;51.600;5.718;2023-12-22T13:59:12;11.30;;;1.90;;
68438;SDS011;55421;51.600;5.718;2023-12-22T14:01:39;4.80;;;1.50;;
68438;SDS011;55421;51.600;5.718;2023-12-22T14:04:06;8.20;;;1.80;;
68438;SDS011;55421;51.600;5.718;2023-12-22T14:06:37;5.00;;;1.30;;
68438;SDS011;55421;51.600;5.718;2023-12-22T14:09:04;7.40;;;1.60;;
68438;SDS011;55421;51.600;5.718;2023-12-22T14:11:30;9.10;;;1.70;;
68438;SDS011;55421;51.600;5.718;2023-12-22T14:13:57;6.20;;;2.20;;
68438;SDS011;55421;51.600;5.718;2023-12-22T14:16:23;6.90;;;1.40;;
68438;SDS011;55421;51.600;5.718;2023-12-22T14:18:50;3.40;;;1.50;;
68438;SDS011;55421;51.600;5.718;2023-12-22T14:21:17;11.50;;;2.10;;
68438;SDS011;55421;51.600;5.718;2023-12-22T14:23:44;4.30;;;1.30;;
68438;SDS011;55421;51.600;5.718;2023-12-22T14:26:10;8.00;;;2.20;;
68438;SDS011;55421;51.600;5.718;2023-12-22T14:28:37;9.80;;;1.60;;
68438;SDS011;55421;51.600;5.718;2023-12-22T14:31:05;7.30;;;1.60;;
68438;SDS011;55421;51.600;5.718;2023-12-22T14:33:32;5.10;;;1.60;;
68438;SDS011;55421;51.600;5.718;2023-12-22T14:35:59;7.30;;;1.90;;
68438;SDS011;55421;51.600;5.718;2023-12-22T14:38:25;9.60;;;1.70;;
68438;SDS011;55421;51.600;5.718;2023-12-22T14:40:52;8.40;;;2.10;;
68438;SDS011;55421;51.600;5.718;2023-12-22T14:43:18;4.60;;;1.50;;
68438;SDS011;55421;51.600;5.718;2023-12-22T14:45:48;8.60;;;2.00;;
68438;SDS011;55421;51.600;5.718;2023-12-22T14:48:15;12.30;;;2.70;;
68438;SDS011;55421;51.600;5.718;2023-12-22T14:50:42;2.80;;;1.70;;
68438;SDS011;55421;51.600;5.718;2023-12-22T14:53:08;11.50;;;1.90;;
68438;SDS011;55421;51.600;5.718;2023-12-22T14:55:35;6.10;;;1.40;;
68438;SDS011;55421;51.600;5.718;2023-12-22T14:58:01;7.80;;;1.80;;
68438;SDS011;55421;51.600;5.718;2023-12-22T15:00:29;4.80;;;1.30;;
68438;SDS011;55421;51.600;5.718;2023-12-22T15:02:56;5.00;;;1.60;;